Аэропорт: Адлер. Сочи

ICAO: URSS

METAR:
2019/03/26 13:00
URSS 261300Z 28005MPS 9999 NSC 11/05 Q1012 WS ALL RWY R02/010070 R06/////// NOSIG RMK R06/28007MPS QFE757
METAR:
2019/03/26 12:21
TAF URSS 261056Z 2612/2712 28005G10MPS 9999 FEW040 
      BECMG 2617/2619 05006MPS NSC 
      BECMG 2707/2708 17005MPS SCT015 
      TEMPO 2709/2712 22005MPS BKN011